Edgar B Speer — WQZ9670 — position and weather

sailwx.info

Track history (hours):
 
Tides and Currents Weather Stations Pressure Air Temp Water Temp Dewpoint Dewpoint Depression Visibility Wind Speed Wind Dir Waves Ship Positions

Edgar B Speer

Owner: Great Lakes Fleet, Inc, DULUTH, MN. More information available from US FCC via Universal Licensing System and Coast Guard Vessel Documentation Center.

Last reported at 2016-Jun-24 01:08 UTC. Time now 2016-Jun-26 22:48 UTC.
Position N 47°03' W 091°29'.

Length 306 m; draft 8.4 m.

Type: Cargo ship. MMSI: 366971330.

Date/timePositionNaut miles runAvg speedWind from/ knotsBaromVisibWave heightAir tempDewpointWater temp
2016-Jun-24 01:08N 47°03' W 091°29'712.3
2016-Jun-24 00:33N 47°01' W 091°38'1 0.1
2016-Jun-23 12:25N 47°01' W 091°40'2 2.1
2016-Jun-23 11:32N 47°00' W 091°38'1312.9
2016-Jun-23 10:33N 47°03' W 091°19'1413.3
2016-Jun-23 09:31N 47°07' W 091°00'  
2016-Jun-18 10:24N 45°26' W 083°13'1112.8
2016-Jun-18 09:31N 45°34' W 083°24'2512.8
2016-Jun-18 07:32N 45°53' W 083°49'1111.0
2016-Jun-18 06:33N 46°02' W 083°56'9 9.0
2016-Jun-18 05:32N 46°10' W 084°04'10 7.3
2016-Jun-18 04:13N 46°17' W 084°13'28 4.8
2016-Jun-17 22:16N 46°36' W 084°44'28311.9
2016-Jun-16 22:32N 46°53' W 091°36'1212.7
2016-Jun-16 21:33N 46°46' W 091°51'8 8.1
2016-Jun-16 20:33N 46°42' W 092°01'0 0.2
2016-Jun-16 19:33N 46°42' W 092°01'0 0.0
2016-Jun-16 18:33N 46°42' W 092°01'0 0.0
2016-Jun-16 17:33N 46°42' W 092°01'0 0.0
2016-Jun-16 16:33N 46°42' W 092°01'0 0.0
2016-Jun-16 15:33N 46°42' W 092°01'0 0.0
2016-Jun-16 14:33N 46°42' W 092°01'0 0.0
2016-Jun-16 13:33N 46°42' W 092°01'0 0.0
2016-Jun-16 12:33N 46°42' W 092°01'0 0.0
2016-Jun-16 11:33N 46°42' W 092°01'0 0.0
2016-Jun-16 10:33N 46°42' W 092°01'0 0.0
2016-Jun-16 09:33N 46°42' W 092°01'0 0.0
2016-Jun-16 08:33N 46°42' W 092°01'0 0.0
2016-Jun-16 07:33N 46°42' W 092°01'0 0.0
2016-Jun-16 06:33N 46°42' W 092°01'0 0.0
2016-Jun-16 05:33N 46°42' W 092°01'0 0.0
2016-Jun-16 04:33N 46°42' W 092°01'0 0.0
2016-Jun-16 03:33N 46°42' W 092°01'0 0.0
2016-Jun-16 02:33N 46°42' W 092°01'0 0.0
2016-Jun-16 01:33N 46°42' W 092°01'0 0.0
2016-Jun-16 00:33N 46°42' W 092°01'0 0.0
2016-Jun-15 23:33N 46°42' W 092°01'0 0.0
2016-Jun-15 22:33N 46°42' W 092°01'0 0.0
2016-Jun-15 21:33N 46°42' W 092°01'0 0.0
2016-Jun-15 20:33N 46°42' W 092°01'0 0.0
2016-Jun-15 19:33N 46°42' W 092°01'0 0.0
2016-Jun-15 18:33N 46°42' W 092°01'0 0.0
2016-Jun-15 17:33N 46°42' W 092°01'0 0.0
2016-Jun-15 16:33N 46°42' W 092°01'0 0.0
2016-Jun-15 15:33N 46°42' W 092°01'0 0.0
2016-Jun-15 14:33N 46°42' W 092°01'0 0.0
2016-Jun-15 13:33N 46°42' W 092°01'0 0.0
2016-Jun-15 12:33N 46°42' W 092°01'0 0.0
2016-Jun-15 11:33N 46°42' W 092°01'1 0.6
2016-Jun-15 10:33N 46°42' W 092°02'3 2.9
2016-Jun-15 09:33N 46°44' W 092°05'1 1.3
2016-Jun-15 08:33N 46°46' W 092°06'0 0.0
2016-Jun-15 07:33N 46°46' W 092°06'0 0.0
2016-Jun-15 06:33N 46°46' W 092°06'0 0.0
2016-Jun-15 05:33N 46°46' W 092°06'0 0.0
2016-Jun-15 04:33N 46°46' W 092°06'0 0.0
2016-Jun-15 03:33N 46°46' W 092°06'0 0.0
2016-Jun-15 02:33N 46°46' W 092°06'0 0.0
2016-Jun-15 01:33N 46°46' W 092°06'0 0.0
2016-Jun-15 00:33N 46°46' W 092°06'0 0.0
2016-Jun-14 23:33N 46°46' W 092°06'0 0.0
2016-Jun-14 22:33N 46°46' W 092°06'0 0.0
2016-Jun-14 21:33N 46°46' W 092°06'0 0.0
2016-Jun-14 20:33N 46°46' W 092°06'0 0.1
2016-Jun-14 19:33N 46°46' W 092°06'4 3.7
2016-Jun-14 18:33N 46°48' W 092°02'4 3.8
2016-Jun-14 17:34N 46°49' W 091°56'1413.4
2016-Jun-14 16:33N 46°54' W 091°38'  
Track history (hours):
 
Tides and Currents Weather Stations Pressure Air Temp Water Temp Dewpoint Dewpoint Depression Visibility Wind Speed Wind Dir Waves Ship Positions

Edgar B Speer

Owner: Great Lakes Fleet, Inc, DULUTH, MN. More information available from US FCC via Universal Licensing System and Coast Guard Vessel Documentation Center.

Last reported at 2016-Jun-24 01:08 UTC. Time now 2016-Jun-26 22:48 UTC.
Position N 47°03' W 091°29'.

Length 306 m; draft 8.4 m.

Type: Cargo ship. MMSI: 366971330.

Date/timePositionNaut miles runAvg speedWind from/ knotsBaromVisibWave heightAir tempDewpointWater temp
2016-Jun-24 01:08N 47°03' W 091°29'712.3
2016-Jun-24 00:33N 47°01' W 091°38'1 0.1
2016-Jun-23 12:25N 47°01' W 091°40'2 2.1
2016-Jun-23 11:32N 47°00' W 091°38'1312.9
2016-Jun-23 10:33N 47°03' W 091°19'1413.3
2016-Jun-23 09:31N 47°07' W 091°00'  
2016-Jun-18 10:24N 45°26' W 083°13'1112.8
2016-Jun-18 09:31N 45°34' W 083°24'2512.8
2016-Jun-18 07:32N 45°53' W 083°49'1111.0
2016-Jun-18 06:33N 46°02' W 083°56'9 9.0
2016-Jun-18 05:32N 46°10' W 084°04'10 7.3
2016-Jun-18 04:13N 46°17' W 084°13'28 4.8
2016-Jun-17 22:16N 46°36' W 084°44'28311.9
2016-Jun-16 22:32N 46°53' W 091°36'1212.7
2016-Jun-16 21:33N 46°46' W 091°51'8 8.1
2016-Jun-16 20:33N 46°42' W 092°01'0 0.2
2016-Jun-16 19:33N 46°42' W 092°01'0 0.0
2016-Jun-16 18:33N 46°42' W 092°01'0 0.0
2016-Jun-16 17:33N 46°42' W 092°01'0 0.0
2016-Jun-16 16:33N 46°42' W 092°01'0 0.0
2016-Jun-16 15:33N 46°42' W 092°01'0 0.0
2016-Jun-16 14:33N 46°42' W 092°01'0 0.0
2016-Jun-16 13:33N 46°42' W 092°01'0 0.0
2016-Jun-16 12:33N 46°42' W 092°01'0 0.0
2016-Jun-16 11:33N 46°42' W 092°01'0 0.0
2016-Jun-16 10:33N 46°42' W 092°01'0 0.0
2016-Jun-16 09:33N 46°42' W 092°01'0 0.0
2016-Jun-16 08:33N 46°42' W 092°01'0 0.0
2016-Jun-16 07:33N 46°42' W 092°01'0 0.0
2016-Jun-16 06:33N 46°42' W 092°01'0 0.0
2016-Jun-16 05:33N 46°42' W 092°01'0 0.0
2016-Jun-16 04:33N 46°42' W 092°01'0 0.0
2016-Jun-16 03:33N 46°42' W 092°01'0 0.0
2016-Jun-16 02:33N 46°42' W 092°01'0 0.0
2016-Jun-16 01:33N 46°42' W 092°01'0 0.0
2016-Jun-16 00:33N 46°42' W 092°01'0 0.0
2016-Jun-15 23:33N 46°42' W 092°01'0 0.0
2016-Jun-15 22:33N 46°42' W 092°01'0 0.0
2016-Jun-15 21:33N 46°42' W 092°01'0 0.0
2016-Jun-15 20:33N 46°42' W 092°01'0 0.0
2016-Jun-15 19:33N 46°42' W 092°01'0 0.0
2016-Jun-15 18:33N 46°42' W 092°01'0 0.0
2016-Jun-15 17:33N 46°42' W 092°01'0 0.0
2016-Jun-15 16:33N 46°42' W 092°01'0 0.0
2016-Jun-15 15:33N 46°42' W 092°01'0 0.0
2016-Jun-15 14:33N 46°42' W 092°01'0 0.0
2016-Jun-15 13:33N 46°42' W 092°01'0 0.0
2016-Jun-15 12:33N 46°42' W 092°01'0 0.0
2016-Jun-15 11:33N 46°42' W 092°01'1 0.6
2016-Jun-15 10:33N 46°42' W 092°02'3 2.9
2016-Jun-15 09:33N 46°44' W 092°05'1 1.3
2016-Jun-15 08:33N 46°46' W 092°06'0 0.0
2016-Jun-15 07:33N 46°46' W 092°06'0 0.0
2016-Jun-15 06:33N 46°46' W 092°06'0 0.0
2016-Jun-15 05:33N 46°46' W 092°06'0 0.0
2016-Jun-15 04:33N 46°46' W 092°06'0 0.0
2016-Jun-15 03:33N 46°46' W 092°06'0 0.0
2016-Jun-15 02:33N 46°46' W 092°06'0 0.0
2016-Jun-15 01:33N 46°46' W 092°06'0 0.0
2016-Jun-15 00:33N 46°46' W 092°06'0 0.0
2016-Jun-14 23:33N 46°46' W 092°06'0 0.0
2016-Jun-14 22:33N 46°46' W 092°06'0 0.0
2016-Jun-14 21:33N 46°46' W 092°06'0 0.0
2016-Jun-14 20:33N 46°46' W 092°06'0 0.1
2016-Jun-14 19:33N 46°46' W 092°06'4 3.7
2016-Jun-14 18:33N 46°48' W 092°02'4 3.8
2016-Jun-14 17:34N 46°49' W 091°56'1413.4
2016-Jun-14 16:33N 46°54' W 091°38'  

Dump ship's entire track history